sensor_id;sensor_type;location;lat;lon;timestamp;P1;durP1;ratioP1;P2;durP2;ratioP2
75932;SDS011;64803;52.356;5.310;2022-12-13T00:01:51;30.88;;;12.80;;
75932;SDS011;64803;52.356;5.310;2022-12-13T00:04:21;36.47;;;13.00;;
75932;SDS011;64803;52.356;5.310;2022-12-13T00:06:49;30.10;;;11.65;;
75932;SDS011;64803;52.356;5.310;2022-12-13T00:09:16;31.98;;;11.48;;
75932;SDS011;64803;52.356;5.310;2022-12-13T00:11:44;31.23;;;10.55;;
75932;SDS011;64803;52.356;5.310;2022-12-13T00:14:10;28.73;;;11.07;;
75932;SDS011;64803;52.356;5.310;2022-12-13T00:16:38;27.35;;;9.77;;
75932;SDS011;64803;52.356;5.310;2022-12-13T00:19:05;30.42;;;10.80;;
75932;SDS011;64803;52.356;5.310;2022-12-13T00:21:31;33.35;;;11.73;;
75932;SDS011;64803;52.356;5.310;2022-12-13T00:23:58;29.58;;;10.73;;
75932;SDS011;64803;52.356;5.310;2022-12-13T00:26:26;36.03;;;12.93;;
75932;SDS011;64803;52.356;5.310;2022-12-13T00:28:55;31.10;;;11.75;;
75932;SDS011;64803;52.356;5.310;2022-12-13T00:31:25;28.10;;;10.27;;
75932;SDS011;64803;52.356;5.310;2022-12-13T00:33:51;26.33;;;9.85;;
75932;SDS011;64803;52.356;5.310;2022-12-13T00:36:18;37.00;;;9.55;;
75932;SDS011;64803;52.356;5.310;2022-12-13T00:38:44;31.10;;;11.30;;
75932;SDS011;64803;52.356;5.310;2022-12-13T00:41:14;30.25;;;12.75;;
75932;SDS011;64803;52.356;5.310;2022-12-13T00:43:42;33.88;;;12.45;;
75932;SDS011;64803;52.356;5.310;2022-12-13T00:46:15;29.85;;;10.98;;
75932;SDS011;64803;52.356;5.310;2022-12-13T00:48:46;28.23;;;11.27;;
75932;SDS011;64803;52.356;5.310;2022-12-13T00:51:14;29.67;;;12.70;;
75932;SDS011;64803;52.356;5.310;2022-12-13T00:53:40;39.13;;;12.75;;
75932;SDS011;64803;52.356;5.310;2022-12-13T00:56:15;28.90;;;10.65;;
75932;SDS011;64803;52.356;5.310;2022-12-13T00:58:46;29.73;;;10.88;;
75932;SDS011;64803;52.356;5.310;2022-12-13T01:01:15;28.92;;;11.23;;
75932;SDS011;64803;52.356;5.310;2022-12-13T01:03:42;29.52;;;11.02;;
75932;SDS011;64803;52.356;5.310;2022-12-13T01:06:09;33.42;;;13.35;;
75932;SDS011;64803;52.356;5.310;2022-12-13T01:08:40;34.92;;;13.05;;
75932;SDS011;64803;52.356;5.310;2022-12-13T01:11:06;30.58;;;12.25;;
75932;SDS011;64803;52.356;5.310;2022-12-13T01:13:33;30.40;;;11.05;;
75932;SDS011;64803;52.356;5.310;2022-12-13T01:16:01;26.52;;;10.98;;
75932;SDS011;64803;52.356;5.310;2022-12-13T01:18:28;28.52;;;11.32;;
75932;SDS011;64803;52.356;5.310;2022-12-13T01:20:58;36.25;;;11.65;;
75932;SDS011;64803;52.356;5.310;2022-12-13T01:23:24;27.45;;;11.43;;
75932;SDS011;64803;52.356;5.310;2022-12-13T01:25:51;28.92;;;12.90;;
75932;SDS011;64803;52.356;5.310;2022-12-13T01:28:20;36.38;;;12.43;;
75932;SDS011;64803;52.356;5.310;2022-12-13T01:30:53;28.27;;;12.13;;
75932;SDS011;64803;52.356;5.310;2022-12-13T01:33:23;29.77;;;11.85;;
75932;SDS011;64803;52.356;5.310;2022-12-13T01:35:50;34.95;;;13.10;;
75932;SDS011;64803;52.356;5.310;2022-12-13T01:38:16;29.50;;;11.52;;
75932;SDS011;64803;52.356;5.310;2022-12-13T01:40:44;34.80;;;12.10;;
75932;SDS011;64803;52.356;5.310;2022-12-13T01:43:12;29.90;;;11.43;;
75932;SDS011;64803;52.356;5.310;2022-12-13T01:45:39;32.00;;;12.15;;
75932;SDS011;64803;52.356;5.310;2022-12-13T01:48:13;32.97;;;13.32;;
75932;SDS011;64803;52.356;5.310;2022-12-13T01:50:45;33.70;;;14.45;;
75932;SDS011;64803;52.356;5.310;2022-12-13T01:53:16;39.00;;;13.90;;
75932;SDS011;64803;52.356;5.310;2022-12-13T01:55:46;41.80;;;13.02;;
75932;SDS011;64803;52.356;5.310;2022-12-13T01:58:17;31.40;;;12.50;;
75932;SDS011;64803;52.356;5.310;2022-12-13T02:00:46;32.72;;;13.15;;
75932;SDS011;64803;52.356;5.310;2022-12-13T02:03:13;34.92;;;13.77;;
75932;SDS011;64803;52.356;5.310;2022-12-13T02:05:43;27.83;;;11.73;;
75932;SDS011;64803;52.356;5.310;2022-12-13T02:08:15;31.48;;;11.77;;
75932;SDS011;64803;52.356;5.310;2022-12-13T02:10:41;38.55;;;11.98;;
75932;SDS011;64803;52.356;5.310;2022-12-13T02:13:08;33.55;;;13.30;;
75932;SDS011;64803;52.356;5.310;2022-12-13T02:18:41;34.03;;;11.20;;
75932;SDS011;64803;52.356;5.310;2022-12-13T02:21:32;25.23;;;10.75;;
75932;SDS011;64803;52.356;5.310;2022-12-13T02:26:46;29.30;;;10.32;;
75932;SDS011;64803;52.356;5.310;2022-12-13T02:35:08;32.22;;;11.35;;
75932;SDS011;64803;52.356;5.310;2022-12-13T02:40:21;26.52;;;10.13;;
75932;SDS011;64803;52.356;5.310;2022-12-13T02:45:40;32.10;;;11.00;;
75932;SDS011;64803;52.356;5.310;2022-12-13T02:48:13;32.78;;;11.43;;
75932;SDS011;64803;52.356;5.310;2022-12-13T02:50:44;29.52;;;9.88;;
75932;SDS011;64803;52.356;5.310;2022-12-13T02:53:11;29.42;;;10.55;;
75932;SDS011;64803;52.356;5.310;2022-12-13T02:55:39;29.58;;;10.65;;
75932;SDS011;64803;52.356;5.310;2022-12-13T02:58:05;28.98;;;11.13;;
75932;SDS011;64803;52.356;5.310;2022-12-13T03:01:21;32.45;;;11.10;;
75932;SDS011;64803;52.356;5.310;2022-12-13T03:06:03;26.80;;;11.55;;
75932;SDS011;64803;52.356;5.310;2022-12-13T03:14:38;24.45;;;9.70;;
75932;SDS011;64803;52.356;5.310;2022-12-13T03:17:09;27.92;;;9.68;;
75932;SDS011;64803;52.356;5.310;2022-12-13T03:19:41;26.27;;;10.52;;
75932;SDS011;64803;52.356;5.310;2022-12-13T03:22:07;27.08;;;9.98;;
75932;SDS011;64803;52.356;5.310;2022-12-13T03:24:33;27.40;;;10.80;;
75932;SDS011;64803;52.356;5.310;2022-12-13T03:26:59;27.52;;;11.23;;
75932;SDS011;64803;52.356;5.310;2022-12-13T03:29:25;34.38;;;12.52;;
75932;SDS011;64803;52.356;5.310;2022-12-13T03:31:51;31.77;;;12.52;;
75932;SDS011;64803;52.356;5.310;2022-12-13T03:34:18;29.48;;;11.15;;
75932;SDS011;64803;52.356;5.310;2022-12-13T03:36:44;32.03;;;12.48;;
75932;SDS011;64803;52.356;5.310;2022-12-13T03:39:10;24.15;;;10.65;;
75932;SDS011;64803;52.356;5.310;2022-12-13T03:41:36;30.38;;;11.20;;
75932;SDS011;64803;52.356;5.310;2022-12-13T03:44:03;28.88;;;10.68;;
75932;SDS011;64803;52.356;5.310;2022-12-13T03:46:30;33.45;;;11.77;;
75932;SDS011;64803;52.356;5.310;2022-12-13T03:48:56;37.58;;;12.85;;
75932;SDS011;64803;52.356;5.310;2022-12-13T03:51:22;30.17;;;12.00;;
75932;SDS011;64803;52.356;5.310;2022-12-13T03:53:48;29.30;;;11.18;;
75932;SDS011;64803;52.356;5.310;2022-12-13T03:56:15;27.70;;;9.43;;
75932;SDS011;64803;52.356;5.310;2022-12-13T03:58:41;28.25;;;9.55;;
75932;SDS011;64803;52.356;5.310;2022-12-13T04:01:09;24.00;;;9.57;;
75932;SDS011;64803;52.356;5.310;2022-12-13T04:03:37;37.35;;;11.23;;
75932;SDS011;64803;52.356;5.310;2022-12-13T04:06:05;28.90;;;11.05;;
75932;SDS011;64803;52.356;5.310;2022-12-13T04:08:31;28.83;;;10.00;;
75932;SDS011;64803;52.356;5.310;2022-12-13T04:10:58;34.63;;;11.50;;
75932;SDS011;64803;52.356;5.310;2022-12-13T04:13:24;33.08;;;11.13;;
75932;SDS011;64803;52.356;5.310;2022-12-13T04:16:02;32.92;;;11.15;;
75932;SDS011;64803;52.356;5.310;2022-12-13T04:18:28;27.70;;;10.32;;
75932;SDS011;64803;52.356;5.310;2022-12-13T04:20:54;30.85;;;11.82;;
75932;SDS011;64803;52.356;5.310;2022-12-13T04:23:20;24.42;;;9.15;;
75932;SDS011;64803;52.356;5.310;2022-12-13T04:25:46;27.67;;;10.10;;
75932;SDS011;64803;52.356;5.310;2022-12-13T04:28:12;25.50;;;9.82;;
75932;SDS011;64803;52.356;5.310;2022-12-13T04:30:38;20.83;;;9.05;;
75932;SDS011;64803;52.356;5.310;2022-12-13T04:33:04;30.02;;;10.85;;
75932;SDS011;64803;52.356;5.310;2022-12-13T04:35:30;23.23;;;9.05;;
75932;SDS011;64803;52.356;5.310;2022-12-13T04:37:56;27.70;;;10.82;;
75932;SDS011;64803;52.356;5.310;2022-12-13T04:40:22;29.33;;;10.65;;
75932;SDS011;64803;52.356;5.310;2022-12-13T04:42:48;25.65;;;9.63;;
75932;SDS011;64803;52.356;5.310;2022-12-13T04:45:15;29.45;;;11.57;;
75932;SDS011;64803;52.356;5.310;2022-12-13T04:47:45;35.55;;;11.48;;
75932;SDS011;64803;52.356;5.310;2022-12-13T04:50:11;25.95;;;10.68;;
75932;SDS011;64803;52.356;5.310;2022-12-13T04:52:38;32.85;;;10.70;;
75932;SDS011;64803;52.356;5.310;2022-12-13T04:55:05;31.48;;;10.77;;
75932;SDS011;64803;52.356;5.310;2022-12-13T04:57:31;24.95;;;9.73;;
75932;SDS011;64803;52.356;5.310;2022-12-13T04:59:57;25.13;;;9.65;;
75932;SDS011;64803;52.356;5.310;2022-12-13T05:02:23;31.10;;;11.40;;
75932;SDS011;64803;52.356;5.310;2022-12-13T05:04:50;30.50;;;11.63;;
75932;SDS011;64803;52.356;5.310;2022-12-13T05:07:16;33.05;;;10.80;;
75932;SDS011;64803;52.356;5.310;2022-12-13T05:09:43;26.98;;;9.93;;
75932;SDS011;64803;52.356;5.310;2022-12-13T05:12:09;29.48;;;9.82;;
75932;SDS011;64803;52.356;5.310;2022-12-13T05:14:35;32.05;;;12.43;;
75932;SDS011;64803;52.356;5.310;2022-12-13T05:17:01;29.52;;;11.73;;
75932;SDS011;64803;52.356;5.310;2022-12-13T05:19:27;26.42;;;11.70;;
75932;SDS011;64803;52.356;5.310;2022-12-13T05:21:53;31.77;;;10.07;;
75932;SDS011;64803;52.356;5.310;2022-12-13T05:24:19;33.47;;;11.35;;
75932;SDS011;64803;52.356;5.310;2022-12-13T05:26:45;26.55;;;10.77;;
75932;SDS011;64803;52.356;5.310;2022-12-13T05:29:11;34.35;;;11.82;;
75932;SDS011;64803;52.356;5.310;2022-12-13T05:31:38;29.58;;;10.15;;
75932;SDS011;64803;52.356;5.310;2022-12-13T05:34:04;28.05;;;10.35;;
75932;SDS011;64803;52.356;5.310;2022-12-13T05:36:30;31.48;;;11.15;;
75932;SDS011;64803;52.356;5.310;2022-12-13T05:38:56;27.08;;;9.70;;
75932;SDS011;64803;52.356;5.310;2022-12-13T05:41:22;32.25;;;12.07;;
75932;SDS011;64803;52.356;5.310;2022-12-13T05:43:50;32.22;;;11.70;;
75932;SDS011;64803;52.356;5.310;2022-12-13T05:46:16;29.13;;;10.60;;
75932;SDS011;64803;52.356;5.310;2022-12-13T05:48:43;33.13;;;11.95;;
75932;SDS011;64803;52.356;5.310;2022-12-13T05:51:10;25.90;;;9.93;;
75932;SDS011;64803;52.356;5.310;2022-12-13T05:53:36;27.27;;;10.38;;
75932;SDS011;64803;52.356;5.310;2022-12-13T05:56:02;30.63;;;11.43;;
75932;SDS011;64803;52.356;5.310;2022-12-13T05:58:28;31.17;;;10.85;;
75932;SDS011;64803;52.356;5.310;2022-12-13T06:00:54;30.38;;;9.98;;
75932;SDS011;64803;52.356;5.310;2022-12-13T06:03:28;25.33;;;10.68;;
75932;SDS011;64803;52.356;5.310;2022-12-13T06:05:54;30.98;;;11.07;;
75932;SDS011;64803;52.356;5.310;2022-12-13T06:08:20;30.92;;;9.85;;
75932;SDS011;64803;52.356;5.310;2022-12-13T06:10:52;28.50;;;11.38;;
75932;SDS011;64803;52.356;5.310;2022-12-13T06:13:19;28.77;;;10.35;;
75932;SDS011;64803;52.356;5.310;2022-12-13T06:15:45;30.25;;;11.55;;
75932;SDS011;64803;52.356;5.310;2022-12-13T06:18:11;25.83;;;10.15;;
75932;SDS011;64803;52.356;5.310;2022-12-13T06:20:37;26.17;;;11.18;;
75932;SDS011;64803;52.356;5.310;2022-12-13T06:23:03;26.45;;;9.90;;
75932;SDS011;64803;52.356;5.310;2022-12-13T06:25:30;28.80;;;10.77;;
75932;SDS011;64803;52.356;5.310;2022-12-13T06:27:56;27.05;;;8.88;;
75932;SDS011;64803;52.356;5.310;2022-12-13T06:30:22;23.95;;;8.27;;
75932;SDS011;64803;52.356;5.310;2022-12-13T06:32:48;24.20;;;9.70;;
75932;SDS011;64803;52.356;5.310;2022-12-13T06:35:15;26.20;;;9.52;;
75932;SDS011;64803;52.356;5.310;2022-12-13T06:37:41;27.75;;;10.30;;
75932;SDS011;64803;52.356;5.310;2022-12-13T06:40:07;29.92;;;11.10;;
75932;SDS011;64803;52.356;5.310;2022-12-13T06:42:33;29.92;;;9.65;;
75932;SDS011;64803;52.356;5.310;2022-12-13T06:44:59;40.90;;;10.25;;
75932;SDS011;64803;52.356;5.310;2022-12-13T06:47:25;34.65;;;11.00;;
75932;SDS011;64803;52.356;5.310;2022-12-13T06:49:52;28.55;;;10.40;;
75932;SDS011;64803;52.356;5.310;2022-12-13T06:52:18;29.05;;;11.35;;
75932;SDS011;64803;52.356;5.310;2022-12-13T06:54:44;31.50;;;10.55;;
75932;SDS011;64803;52.356;5.310;2022-12-13T06:57:10;31.73;;;10.93;;
75932;SDS011;64803;52.356;5.310;2022-12-13T06:59:37;33.08;;;9.70;;
75932;SDS011;64803;52.356;5.310;2022-12-13T07:02:04;33.00;;;11.57;;
75932;SDS011;64803;52.356;5.310;2022-12-13T07:04:30;34.05;;;11.35;;
75932;SDS011;64803;52.356;5.310;2022-12-13T07:06:56;26.92;;;11.23;;
75932;SDS011;64803;52.356;5.310;2022-12-13T07:09:23;30.70;;;10.75;;
75932;SDS011;64803;52.356;5.310;2022-12-13T07:11:49;35.05;;;11.02;;
75932;SDS011;64803;52.356;5.310;2022-12-13T07:14:14;43.47;;;14.02;;
75932;SDS011;64803;52.356;5.310;2022-12-13T07:16:40;38.83;;;15.25;;
75932;SDS011;64803;52.356;5.310;2022-12-13T07:19:08;47.25;;;14.38;;
75932;SDS011;64803;52.356;5.310;2022-12-13T07:21:34;39.42;;;12.57;;
75932;SDS011;64803;52.356;5.310;2022-12-13T07:24:00;33.53;;;11.35;;
75932;SDS011;64803;52.356;5.310;2022-12-13T07:26:26;32.17;;;11.75;;
75932;SDS011;64803;52.356;5.310;2022-12-13T07:28:53;33.88;;;11.70;;
75932;SDS011;64803;52.356;5.310;2022-12-13T07:31:19;36.85;;;12.50;;
75932;SDS011;64803;52.356;5.310;2022-12-13T07:33:45;40.83;;;12.80;;
75932;SDS011;64803;52.356;5.310;2022-12-13T07:36:12;39.78;;;14.98;;
75932;SDS011;64803;52.356;5.310;2022-12-13T07:38:40;36.95;;;13.68;;
75932;SDS011;64803;52.356;5.310;2022-12-13T07:41:07;44.15;;;14.57;;
75932;SDS011;64803;52.356;5.310;2022-12-13T07:43:33;33.92;;;12.30;;
75932;SDS011;64803;52.356;5.310;2022-12-13T07:46:01;32.75;;;12.25;;
75932;SDS011;64803;52.356;5.310;2022-12-13T07:48:29;44.17;;;11.18;;
75932;SDS011;64803;52.356;5.310;2022-12-13T07:51:02;34.55;;;11.25;;
75932;SDS011;64803;52.356;5.310;2022-12-13T07:58:21;29.23;;;9.82;;
75932;SDS011;64803;52.356;5.310;2022-12-13T08:00:48;32.53;;;10.65;;
75932;SDS011;64803;52.356;5.310;2022-12-13T08:03:14;34.95;;;13.68;;
75932;SDS011;64803;52.356;5.310;2022-12-13T08:05:41;35.17;;;12.05;;
75932;SDS011;64803;52.356;5.310;2022-12-13T08:08:07;48.30;;;12.95;;
75932;SDS011;64803;52.356;5.310;2022-12-13T08:10:35;36.70;;;12.60;;
75932;SDS011;64803;52.356;5.310;2022-12-13T08:13:01;35.83;;;12.75;;
75932;SDS011;64803;52.356;5.310;2022-12-13T08:15:27;38.45;;;13.73;;
75932;SDS011;64803;52.356;5.310;2022-12-13T08:17:54;36.15;;;13.38;;
75932;SDS011;64803;52.356;5.310;2022-12-13T08:20:21;37.67;;;13.90;;
75932;SDS011;64803;52.356;5.310;2022-12-13T08:22:56;36.00;;;12.90;;
75932;SDS011;64803;52.356;5.310;2022-12-13T08:25:23;27.90;;;11.70;;
75932;SDS011;64803;52.356;5.310;2022-12-13T08:27:50;32.50;;;12.73;;
75932;SDS011;64803;52.356;5.310;2022-12-13T08:30:16;35.13;;;13.18;;
75932;SDS011;64803;52.356;5.310;2022-12-13T08:32:42;34.53;;;12.18;;
75932;SDS011;64803;52.356;5.310;2022-12-13T08:35:09;45.05;;;13.63;;
75932;SDS011;64803;52.356;5.310;2022-12-13T08:37:35;42.50;;;13.63;;
75932;SDS011;64803;52.356;5.310;2022-12-13T08:40:01;44.33;;;13.20;;
75932;SDS011;64803;52.356;5.310;2022-12-13T08:42:28;35.20;;;13.05;;
75932;SDS011;64803;52.356;5.310;2022-12-13T08:44:54;33.80;;;12.63;;
75932;SDS011;64803;52.356;5.310;2022-12-13T08:47:21;35.78;;;12.52;;
75932;SDS011;64803;52.356;5.310;2022-12-13T08:49:49;28.38;;;12.32;;
75932;SDS011;64803;52.356;5.310;2022-12-13T08:52:15;39.13;;;12.82;;
75932;SDS011;64803;52.356;5.310;2022-12-13T08:54:41;37.58;;;12.98;;
75932;SDS011;64803;52.356;5.310;2022-12-13T08:57:09;33.90;;;13.93;;
75932;SDS011;64803;52.356;5.310;2022-12-13T08:59:35;35.72;;;12.95;;
75932;SDS011;64803;52.356;5.310;2022-12-13T09:02:01;42.30;;;13.45;;
75932;SDS011;64803;52.356;5.310;2022-12-13T09:04:27;39.58;;;13.02;;
75932;SDS011;64803;52.356;5.310;2022-12-13T09:06:53;33.45;;;13.05;;
75932;SDS011;64803;52.356;5.310;2022-12-13T09:09:19;37.80;;;13.20;;
75932;SDS011;64803;52.356;5.310;2022-12-13T09:11:45;41.10;;;13.48;;
75932;SDS011;64803;52.356;5.310;2022-12-13T09:14:11;38.03;;;13.52;;
75932;SDS011;64803;52.356;5.310;2022-12-13T09:16:37;40.88;;;14.43;;
75932;SDS011;64803;52.356;5.310;2022-12-13T09:19:03;33.03;;;13.23;;
75932;SDS011;64803;52.356;5.310;2022-12-13T09:21:30;34.10;;;13.52;;
75932;SDS011;64803;52.356;5.310;2022-12-13T09:23:56;49.35;;;16.25;;
75932;SDS011;64803;52.356;5.310;2022-12-13T09:26:23;41.50;;;15.02;;
75932;SDS011;64803;52.356;5.310;2022-12-13T09:28:49;41.15;;;15.57;;
75932;SDS011;64803;52.356;5.310;2022-12-13T09:31:15;43.17;;;15.25;;
75932;SDS011;64803;52.356;5.310;2022-12-13T09:33:43;40.88;;;15.40;;
75932;SDS011;64803;52.356;5.310;2022-12-13T09:38:42;39.15;;;14.48;;
75932;SDS011;64803;52.356;5.310;2022-12-13T09:41:14;49.97;;;15.57;;
75932;SDS011;64803;52.356;5.310;2022-12-13T09:44:02;49.13;;;16.85;;
75932;SDS011;64803;52.356;5.310;2022-12-13T09:49:00;36.20;;;14.27;;
75932;SDS011;64803;52.356;5.310;2022-12-13T09:51:28;40.17;;;14.27;;
75932;SDS011;64803;52.356;5.310;2022-12-13T09:53:57;40.72;;;15.25;;
75932;SDS011;64803;52.356;5.310;2022-12-13T09:56:25;44.33;;;15.73;;
75932;SDS011;64803;52.356;5.310;2022-12-13T09:58:53;41.35;;;16.35;;
75932;SDS011;64803;52.356;5.310;2022-12-13T10:01:21;46.10;;;16.02;;
75932;SDS011;64803;52.356;5.310;2022-12-13T10:03:48;41.92;;;15.55;;
75932;SDS011;64803;52.356;5.310;2022-12-13T10:06:22;48.15;;;17.75;;
75932;SDS011;64803;52.356;5.310;2022-12-13T10:08:50;46.20;;;16.02;;
75932;SDS011;64803;52.356;5.310;2022-12-13T10:11:19;34.65;;;13.10;;
75932;SDS011;64803;52.356;5.310;2022-12-13T10:19:20;38.72;;;15.70;;
75932;SDS011;64803;52.356;5.310;2022-12-13T10:24:19;44.55;;;14.27;;
75932;SDS011;64803;52.356;5.310;2022-12-13T10:26:45;36.42;;;15.18;;
75932;SDS011;64803;52.356;5.310;2022-12-13T10:29:11;46.45;;;16.23;;
75932;SDS011;64803;52.356;5.310;2022-12-13T10:31:38;44.97;;;16.17;;
75932;SDS011;64803;52.356;5.310;2022-12-13T10:34:19;43.20;;;15.65;;
75932;SDS011;64803;52.356;5.310;2022-12-13T10:36:46;41.38;;;16.13;;
75932;SDS011;64803;52.356;5.310;2022-12-13T10:39:35;43.38;;;16.52;;
75932;SDS011;64803;52.356;5.310;2022-12-13T10:42:11;40.58;;;15.48;;
75932;SDS011;64803;52.356;5.310;2022-12-13T10:44:45;47.45;;;16.17;;
75932;SDS011;64803;52.356;5.310;2022-12-13T10:47:16;40.28;;;14.45;;
75932;SDS011;64803;52.356;5.310;2022-12-13T10:49:51;35.83;;;14.43;;
75932;SDS011;64803;52.356;5.310;2022-12-13T10:52:22;43.22;;;15.93;;
75932;SDS011;64803;52.356;5.310;2022-12-13T10:54:51;46.67;;;16.63;;
75932;SDS011;64803;52.356;5.310;2022-12-13T10:57:18;38.42;;;14.48;;
75932;SDS011;64803;52.356;5.310;2022-12-13T10:59:46;44.30;;;15.80;;
75932;SDS011;64803;52.356;5.310;2022-12-13T11:02:26;42.55;;;15.77;;
75932;SDS011;64803;52.356;5.310;2022-12-13T11:04:57;46.15;;;15.95;;
75932;SDS011;64803;52.356;5.310;2022-12-13T11:07:26;43.83;;;17.48;;
75932;SDS011;64803;52.356;5.310;2022-12-13T11:09:57;41.85;;;15.73;;
75932;SDS011;64803;52.356;5.310;2022-12-13T11:12:39;40.15;;;14.48;;
75932;SDS011;64803;52.356;5.310;2022-12-13T11:15:07;45.28;;;16.52;;
75932;SDS011;64803;52.356;5.310;2022-12-13T11:17:48;43.97;;;15.63;;
75932;SDS011;64803;52.356;5.310;2022-12-13T11:20:18;39.20;;;14.23;;
75932;SDS011;64803;52.356;5.310;2022-12-13T11:22:48;39.65;;;15.30;;
75932;SDS011;64803;52.356;5.310;2022-12-13T11:25:25;43.42;;;16.95;;
75932;SDS011;64803;52.356;5.310;2022-12-13T11:33:32;42.00;;;15.75;;
75932;SDS011;64803;52.356;5.310;2022-12-13T11:36:27;46.33;;;15.20;;
75932;SDS011;64803;52.356;5.310;2022-12-13T11:39:10;34.70;;;14.10;;
75932;SDS011;64803;52.356;5.310;2022-12-13T11:41:53;34.03;;;13.68;;
75932;SDS011;64803;52.356;5.310;2022-12-13T11:46:59;40.13;;;14.98;;
75932;SDS011;64803;52.356;5.310;2022-12-13T11:52:10;38.65;;;14.88;;
75932;SDS011;64803;52.356;5.310;2022-12-13T11:54:56;41.33;;;14.35;;
75932;SDS011;64803;52.356;5.310;2022-12-13T12:00:02;45.65;;;15.60;;
75932;SDS011;64803;52.356;5.310;2022-12-13T12:02:44;39.30;;;15.25;;
75932;SDS011;64803;52.356;5.310;2022-12-13T12:05:37;36.72;;;15.02;;
75932;SDS011;64803;52.356;5.310;2022-12-13T12:08:23;40.13;;;14.43;;
75932;SDS011;64803;52.356;5.310;2022-12-13T12:11:31;40.60;;;15.10;;
75932;SDS011;64803;52.356;5.310;2022-12-13T12:13:57;38.92;;;15.98;;
75932;SDS011;64803;52.356;5.310;2022-12-13T12:19:13;41.67;;;15.23;;
75932;SDS011;64803;52.356;5.310;2022-12-13T12:37:59;40.60;;;15.68;;
75932;SDS011;64803;52.356;5.310;2022-12-13T12:43:06;37.85;;;15.38;;
75932;SDS011;64803;52.356;5.310;2022-12-13T12:51:53;42.13;;;15.98;;
75932;SDS011;64803;52.356;5.310;2022-12-13T12:54:25;36.10;;;14.38;;
75932;SDS011;64803;52.356;5.310;2022-12-13T12:56:56;39.05;;;14.98;;
75932;SDS011;64803;52.356;5.310;2022-12-13T12:59:36;37.25;;;14.75;;
75932;SDS011;64803;52.356;5.310;2022-12-13T13:04:49;44.13;;;16.75;;
75932;SDS011;64803;52.356;5.310;2022-12-13T13:09:56;37.05;;;13.27;;
75932;SDS011;64803;52.356;5.310;2022-12-13T13:12:24;40.17;;;13.68;;
75932;SDS011;64803;52.356;5.310;2022-12-13T13:14:52;36.30;;;14.48;;
75932;SDS011;64803;52.356;5.310;2022-12-13T13:19:55;37.72;;;13.98;;
75932;SDS011;64803;52.356;5.310;2022-12-13T13:22:40;34.78;;;14.60;;
75932;SDS011;64803;52.356;5.310;2022-12-13T13:27:43;31.92;;;13.82;;
75932;SDS011;64803;52.356;5.310;2022-12-13T13:32:48;37.83;;;15.70;;
75932;SDS011;64803;52.356;5.310;2022-12-13T13:37:59;37.85;;;17.35;;
75932;SDS011;64803;52.356;5.310;2022-12-13T13:48:25;46.83;;;18.65;;
75932;SDS011;64803;52.356;5.310;2022-12-13T14:00:07;47.22;;;17.02;;
75932;SDS011;64803;52.356;5.310;2022-12-13T14:08:31;39.97;;;17.25;;
75932;SDS011;64803;52.356;5.310;2022-12-13T14:19:44;44.45;;;13.95;;
75932;SDS011;64803;52.356;5.310;2022-12-13T14:22:43;37.55;;;14.57;;
75932;SDS011;64803;52.356;5.310;2022-12-13T14:28:00;38.10;;;15.35;;
75932;SDS011;64803;52.356;5.310;2022-12-13T14:30:42;41.83;;;16.83;;
75932;SDS011;64803;52.356;5.310;2022-12-13T14:33:18;41.85;;;16.15;;
75932;SDS011;64803;52.356;5.310;2022-12-13T14:35:50;38.83;;;15.35;;
75932;SDS011;64803;52.356;5.310;2022-12-13T14:38:27;37.85;;;14.80;;
75932;SDS011;64803;52.356;5.310;2022-12-13T14:40:56;43.05;;;16.35;;
75932;SDS011;64803;52.356;5.310;2022-12-13T14:43:28;42.47;;;16.27;;
75932;SDS011;64803;52.356;5.310;2022-12-13T14:45:57;44.92;;;16.77;;
75932;SDS011;64803;52.356;5.310;2022-12-13T14:48:26;48.22;;;16.38;;
75932;SDS011;64803;52.356;5.310;2022-12-13T14:50:56;41.53;;;15.93;;
75932;SDS011;64803;52.356;5.310;2022-12-13T14:56:04;40.47;;;14.93;;
75932;SDS011;64803;52.356;5.310;2022-12-13T14:58:38;37.28;;;14.93;;
75932;SDS011;64803;52.356;5.310;2022-12-13T15:01:23;37.25;;;14.60;;
75932;SDS011;64803;52.356;5.310;2022-12-13T15:04:17;38.15;;;15.20;;
75932;SDS011;64803;52.356;5.310;2022-12-13T15:06:49;32.80;;;13.38;;
75932;SDS011;64803;52.356;5.310;2022-12-13T15:09:26;34.13;;;13.35;;
75932;SDS011;64803;52.356;5.310;2022-12-13T15:11:53;35.47;;;14.27;;
75932;SDS011;64803;52.356;5.310;2022-12-13T15:14:21;40.28;;;15.95;;
75932;SDS011;64803;52.356;5.310;2022-12-13T15:16:49;39.55;;;13.40;;
75932;SDS011;64803;52.356;5.310;2022-12-13T15:19:19;36.42;;;13.85;;
75932;SDS011;64803;52.356;5.310;2022-12-13T15:22:01;33.15;;;13.57;;
75932;SDS011;64803;52.356;5.310;2022-12-13T15:24:34;53.67;;;15.20;;
75932;SDS011;64803;52.356;5.310;2022-12-13T15:27:06;43.97;;;13.90;;
75932;SDS011;64803;52.356;5.310;2022-12-13T15:29:33;48.10;;;14.68;;
75932;SDS011;64803;52.356;5.310;2022-12-13T15:32:01;58.40;;;17.40;;
75932;SDS011;64803;52.356;5.310;2022-12-13T15:37:01;59.65;;;16.13;;
75932;SDS011;64803;52.356;5.310;2022-12-13T15:39:38;43.38;;;14.65;;
75932;SDS011;64803;52.356;5.310;2022-12-13T15:42:20;41.97;;;14.23;;
75932;SDS011;64803;52.356;5.310;2022-12-13T15:44:53;39.53;;;13.05;;
75932;SDS011;64803;52.356;5.310;2022-12-13T15:47:22;41.75;;;13.85;;
75932;SDS011;64803;52.356;5.310;2022-12-13T15:49:50;37.75;;;13.93;;
75932;SDS011;64803;52.356;5.310;2022-12-13T15:55:00;31.83;;;11.65;;
75932;SDS011;64803;52.356;5.310;2022-12-13T15:57:33;33.42;;;12.43;;
75932;SDS011;64803;52.356;5.310;2022-12-13T16:02:45;39.03;;;13.35;;
75932;SDS011;64803;52.356;5.310;2022-12-13T16:05:35;37.67;;;13.65;;
75932;SDS011;64803;52.356;5.310;2022-12-13T16:08:04;39.72;;;14.57;;
75932;SDS011;64803;52.356;5.310;2022-12-13T16:10:32;30.85;;;11.45;;
75932;SDS011;64803;52.356;5.310;2022-12-13T16:13:03;35.95;;;13.68;;
75932;SDS011;64803;52.356;5.310;2022-12-13T16:15:31;43.33;;;14.20;;
75932;SDS011;64803;52.356;5.310;2022-12-13T16:18:23;35.35;;;13.82;;
75932;SDS011;64803;52.356;5.310;2022-12-13T16:20:54;37.97;;;14.07;;
75932;SDS011;64803;52.356;5.310;2022-12-13T16:23:21;37.75;;;14.35;;
75932;SDS011;64803;52.356;5.310;2022-12-13T16:25:47;33.78;;;12.90;;
75932;SDS011;64803;52.356;5.310;2022-12-13T16:28:14;47.05;;;15.40;;
75932;SDS011;64803;52.356;5.310;2022-12-13T16:33:20;45.88;;;14.20;;
75932;SDS011;64803;52.356;5.310;2022-12-13T16:35:48;32.08;;;13.45;;
75932;SDS011;64803;52.356;5.310;2022-12-13T16:38:15;32.97;;;12.82;;
75932;SDS011;64803;52.356;5.310;2022-12-13T16:40:41;35.97;;;13.90;;
75932;SDS011;64803;52.356;5.310;2022-12-13T16:43:13;38.40;;;13.25;;
75932;SDS011;64803;52.356;5.310;2022-12-13T16:45:42;35.95;;;13.45;;
75932;SDS011;64803;52.356;5.310;2022-12-13T16:48:10;38.05;;;14.25;;
75932;SDS011;64803;52.356;5.310;2022-12-13T16:50:41;38.83;;;13.90;;
75932;SDS011;64803;52.356;5.310;2022-12-13T16:53:08;35.55;;;14.18;;
75932;SDS011;64803;52.356;5.310;2022-12-13T16:55:34;38.90;;;14.73;;
75932;SDS011;64803;52.356;5.310;2022-12-13T16:58:01;37.70;;;13.50;;
75932;SDS011;64803;52.356;5.310;2022-12-13T17:00:29;42.47;;;14.18;;
75932;SDS011;64803;52.356;5.310;2022-12-13T17:02:56;39.90;;;13.50;;
75932;SDS011;64803;52.356;5.310;2022-12-13T17:05:23;37.35;;;13.63;;